Historique des mesures à Cassis (13260), France
Quotidien Résumé Fevrier 7, 2017 Unités:  US    Métrique   Métrique/US
« Précédent (Jour)
Suivant (Jour) »
Quotidien Hebdomadaire Mensuel Annuel Période au choix
  Maximum: Minimum: Moyenne:
Température: 32 °F 45.7 °F 50.9 °F
Point de rosée: 32 °F 35.4 °F 38.7 °F
Humidité: Humidity % 56 % 59 %
Vitesse du vent: WindSpeedKMH mph 0.0 mph 6.4 mph
Rafales: WindSpeedGustKMH mph - -
Vent:- - SSE
Pression: 0 in 29.8 in -
Précipitations: 0 in    
Historical Graphs
 
 
Mesures pour : Fevrier 7, 2017
Heure Temperature Point de rosée Pression Vent Vitesse du vent Rafales Humidité Pluie (par heure) Conditions
32 °F 32 °F 0 in Calm     Humidity % 0 in SoftwareType W/m2
00:11 48 °F 35.6 °F 29.8 in North 11.9 mph 11.9 mph 62 % 0 in open2300-1.11 W/m2
01:10 47.1 °F 36 °F 29.8 in NW 27.0 mph 27.0 mph 65 % 0 in open2300-1.11 W/m2
02:11 47.8 °F 35.8 °F 29.8 in ENE 7.6 mph 9.0 mph 63 % 0 in open2300-1.11 W/m2
03:10 47.3 °F 35.8 °F 29.8 in Calm   2.9 mph 64 % 0 in open2300-1.11 W/m2
04:11 46.8 °F 35.6 °F 29.8 in Calm     65 % 0 in open2300-1.11 W/m2
05:10 46.2 °F 35.4 °F 29.8 in Calm   1.4 mph 66 % 0 in open2300-1.11 W/m2
06:11 45.7 °F 35.8 °F 29.8 in Calm   4.0 mph 68 % 0 in open2300-1.11 W/m2
07:10 46.8 °F 35.6 °F 29.8 in NW 20.9 mph 20.9 mph 65 % 0 in open2300-1.11 W/m2
08:11 47.3 °F 35.8 °F 29.9 in Calm     64 % 0 in open2300-1.11 W/m2
09:10 47.5 °F 36 °F 29.8 in NNE 1.4 mph 4.3 mph 64 % 0 in open2300-1.11 W/m2
10:11 49.3 °F 36.9 °F 29.9 in NNW 3.2 mph 4.3 mph 62 % 0 in open2300-1.11 W/m2
11:10 51.6 °F 38.1 °F 29.9 in Calm   6.1 mph 60 % 0 in open2300-1.11 W/m2
12:11 53.4 °F 39.6 °F 29.9 in Calm     59 % 0 in open2300-1.11 W/m2
13:10 55.6 °F 41.4 °F 29.9 in Calm     59 % 0 in open2300-1.11 W/m2
14:11 57 °F 41.5 °F 29.8 in NE 3.2 mph 4.7 mph 56 % 0 in open2300-1.11 W/m2
15:10 56.5 °F 42.3 °F 29.8 in NNW 13.4 mph 13.4 mph 59 % 0 in open2300-1.11 W/m2
16:11 56.8 °F 42.6 °F 29.8 in NW 7.2 mph 9.7 mph 59 % 0 in open2300-1.11 W/m2
17:10 57.7 °F 44.1 °F 29.8 in North 6.4 mph 27.7 mph 60 % 0 in open2300-1.11 W/m2
18:11 57 °F 43 °F 29.8 in NW 4.0 mph 9.0 mph 59 % 0 in open2300-1.11 W/m2
19:10 56.8 °F 41.7 °F 29.8 in NNE 4.3 mph 9.3 mph 57 % 0 in open2300-1.11 W/m2
20:11 55.2 °F 42.1 °F 29.8 in North 6.1 mph 6.8 mph 61 % 0 in open2300-1.11 W/m2
21:10 54.5 °F 41.7 °F 29.8 in North 4.3 mph 11.6 mph 62 % 0 in open2300-1.11 W/m2
22:11 54.3 °F 41.2 °F 29.8 in NW 30.9 mph 30.9 mph 61 % 0 in open2300-1.11 W/m2
23:10 53.4 °F 41.2 °F 29.8 in North 7.6 mph 19.5 mph 63 % 0 in open2300-1.11 W/m2
Observations météo à CASSIS
WU-History script by Weather Underground - 1 mb